Time;durP1;ratioP1;P1;durP2;ratioP2;P2;SDS_P1;SDS_P2;PMS_P1;PMS_P2;Temp;Humidity;BMP_temperature;BMP_pressure;BME280_temperature;BME280_humidity;BME280_pressure;Samples;Min_cycle;Max_cycle;Signal;HPM_P1;HPM_P2
2021/05/19 00:01:21;;;;;;;17.17;10.75;;;;;;;10.13;100.00;100764.91;5015291;28;20547;-73
2021/05/19 00:03:47;;;;;;;19.35;11.00;;;;;;;10.17;100.00;100773.06;5031743;28;20057;-72
2021/05/19 00:06:12;;;;;;;16.38;10.07;;;;;;;10.10;100.00;100759.44;5031697;28;20045;-72
2021/05/19 00:08:39;;;;;;;16.92;10.60;;;;;;;10.12;100.00;100771.44;5025649;28;20046;-73
2021/05/19 00:11:05;;;;;;;18.80;10.98;;;;;;;10.13;100.00;100764.91;5021482;28;20515;-72
2021/05/19 00:13:32;;;;;;;17.33;10.57;;;;;;;10.11;100.00;100767.16;5032285;28;20029;-73
2021/05/19 00:15:58;;;;;;;18.77;10.25;;;;;;;10.07;100.00;100766.25;5030125;28;20045;-73
2021/05/19 00:18:24;;;;;;;17.25;10.60;;;;;;;9.95;100.00;100756.38;5035452;28;20059;-73
2021/05/19 00:20:50;;;;;;;22.42;11.05;;;;;;;9.96;100.00;100759.84;5023067;28;20030;-73
2021/05/19 00:23:15;;;;;;;18.67;9.90;;;;;;;10.09;100.00;100769.38;5023728;28;20371;-71
2021/05/19 00:25:41;;;;;;;19.30;11.23;;;;;;;10.15;100.00;100773.41;5041004;28;20037;-73
2021/05/19 00:28:06;;;;;;;18.23;11.15;;;;;;;10.15;100.00;100767.25;5023990;28;20036;-73
2021/05/19 00:30:34;;;;;;;17.02;10.32;;;;;;;10.10;100.00;100775.59;5038463;28;20482;-73
2021/05/19 00:33:00;;;;;;;17.92;10.35;;;;;;;9.82;100.00;100770.25;5021140;28;20017;-74
2021/05/19 00:35:25;;;;;;;17.45;10.60;;;;;;;9.72;100.00;100770.75;5039774;28;20504;-73
2021/05/19 00:37:51;;;;;;;17.95;11.07;;;;;;;9.77;100.00;100773.22;5037549;28;20037;-73
2021/05/19 00:40:17;;;;;;;17.90;10.20;;;;;;;9.60;100.00;100771.63;5030634;28;20025;-73
2021/05/19 00:42:42;;;;;;;16.17;10.00;;;;;;;9.59;100.00;100770.06;5031420;28;20502;-73
2021/05/19 00:45:10;;;;;;;14.60;9.48;;;;;;;9.54;100.00;100774.91;5031011;28;20037;-73
2021/05/19 00:47:37;;;;;;;18.15;10.75;;;;;;;9.63;100.00;100768.25;5029823;28;20034;-73
2021/05/19 00:50:05;;;;;;;15.52;9.52;;;;;;;9.61;100.00;100778.56;5024274;28;20044;-74
2021/05/19 00:52:31;;;;;;;13.48;9.00;;;;;;;9.51;100.00;100778.28;5031339;28;20030;-74
2021/05/19 00:54:57;;;;;;;17.73;9.85;;;;;;;9.48;100.00;100768.22;5030802;28;20044;-74
2021/05/19 00:57:23;;;;;;;17.83;9.88;;;;;;;9.46;100.00;100773.97;5025931;28;20030;-73
2021/05/19 00:59:49;;;;;;;15.88;9.68;;;;;;;9.48;100.00;100777.09;5036637;28;20033;-73
2021/05/19 01:02:18;;;;;;;13.60;9.05;;;;;;;9.51;100.00;100768.31;5027285;28;20561;-73
2021/05/19 01:04:44;;;;;;;16.45;9.98;;;;;;;9.55;100.00;100771.09;5037334;28;20037;-71
2021/05/19 01:09:47;;;;;;;17.27;9.63;;;;;;;9.39;100.00;100768.38;5031877;28;20062;-72
2021/05/19 01:12:17;;;;;;;15.95;9.30;;;;;;;9.46;100.00;100773.16;5020073;28;20030;-73
2021/05/19 01:14:44;;;;;;;16.02;9.48;;;;;;;9.72;100.00;100773.44;5022829;28;20041;-72
2021/05/19 01:17:10;;;;;;;18.70;10.60;;;;;;;9.49;100.00;100772.47;5034443;28;20404;-71
2021/05/19 01:19:43;;;;;;;16.52;9.77;;;;;;;9.23;100.00;100778.31;5025867;28;20037;-72
2021/05/19 01:22:11;;;;;;;19.50;9.60;;;;;;;9.21;100.00;100777.88;5035235;28;20037;-71
2021/05/19 01:24:40;;;;;;;16.45;10.20;;;;;;;9.20;100.00;100773.63;5019629;28;20073;-72
2021/05/19 01:27:08;;;;;;;18.73;10.55;;;;;;;9.14;100.00;100780.34;5021186;28;20037;-71
2021/05/19 01:29:34;;;;;;;15.38;10.00;;;;;;;9.27;100.00;100781.09;5033728;28;20066;-72
2021/05/19 01:32:00;;;;;;;18.77;11.00;;;;;;;9.34;100.00;100794.72;5023254;28;20153;-73
2021/05/19 01:34:26;;;;;;;21.20;11.52;;;;;;;9.34;100.00;100778.59;5022146;28;20026;-72
2021/05/19 01:36:51;;;;;;;17.02;10.50;;;;;;;9.35;100.00;100783.63;5028542;28;20033;-72
2021/05/19 01:39:18;;;;;;;18.70;10.90;;;;;;;9.36;100.00;100781.72;5023848;28;20029;-72
2021/05/19 01:41:46;;;;;;;18.95;11.40;;;;;;;9.51;100.00;100786.34;5027384;28;20549;-74
2021/05/19 01:44:17;;;;;;;18.55;11.05;;;;;;;9.59;100.00;100777.34;5052532;22;20044;-78
2021/05/19 01:47:09;;;;;;;20.77;11.15;;;;;;;9.44;100.00;100775.41;5062983;28;20424;-76
2021/05/19 01:49:43;;;;;;;20.42;12.23;;;;;;;9.56;100.00;100791.50;5040435;28;20067;-73
2021/05/19 01:52:11;;;;;;;25.40;12.27;;;;;;;9.56;100.00;100781.50;5081963;28;20394;-77
2021/05/19 01:54:39;;;;;;;22.10;11.98;;;;;;;9.37;100.00;100789.44;5046129;28;20064;-76
2021/05/19 01:57:10;;;;;;;18.38;11.00;;;;;;;9.33;100.00;100783.19;5049692;28;20032;-77
2021/05/19 01:59:40;;;;;;;20.92;11.73;;;;;;;9.19;100.00;100787.41;5043897;28;20030;-78
2021/05/19 02:02:06;;;;;;;19.58;11.18;;;;;;;9.12;100.00;100793.34;5060763;28;20033;-78
2021/05/19 02:04:33;;;;;;;18.77;11.65;;;;;;;9.15;100.00;100795.38;5061542;28;20124;-78
2021/05/19 02:06:59;;;;;;;20.05;11.35;;;;;;;9.03;100.00;100795.41;5037448;28;20120;-76
2021/05/19 02:09:35;;;;;;;18.33;11.73;;;;;;;8.90;100.00;100791.94;5039449;28;20556;-77
2021/05/19 02:12:05;;;;;;;19.63;11.98;;;;;;;8.89;100.00;100792.28;5041222;28;20028;-77
2021/05/19 02:14:30;;;;;;;24.27;13.70;;;;;;;8.95;100.00;100794.41;5056152;28;20040;-77
2021/05/19 02:16:57;;;;;;;23.98;13.30;;;;;;;8.99;100.00;100794.50;5034940;28;20063;-74
2021/05/19 02:19:22;;;;;;;24.65;13.00;;;;;;;9.03;100.00;100793.50;5049059;28;20659;-77
2021/05/19 02:21:54;;;;;;;22.52;12.40;;;;;;;9.01;100.00;100793.06;5068285;28;20497;-77
2021/05/19 02:24:19;;;;;;;22.92;12.77;;;;;;;8.99;100.00;100786.44;5033062;28;20045;-76
2021/05/19 02:26:47;;;;;;;24.38;13.88;;;;;;;8.87;100.00;100781.91;5041633;28;20029;-75
2021/05/19 02:29:16;;;;;;;23.67;13.23;;;;;;;8.77;100.00;100792.31;5024583;28;20033;-76
2021/05/19 02:31:42;;;;;;;24.77;13.63;;;;;;;8.96;100.00;100790.59;5027092;28;20043;-76
2021/05/19 02:34:09;;;;;;;23.60;13.40;;;;;;;8.94;100.00;100784.00;5050650;28;20182;-76
2021/05/19 02:36:38;;;;;;;23.85;14.02;;;;;;;8.80;100.00;100791.66;5041989;28;20025;-75
2021/05/19 02:39:08;;;;;;;27.08;14.13;;;;;;;8.78;100.00;100780.47;5037132;28;20025;-77
2021/05/19 02:41:36;;;;;;;24.23;13.10;;;;;;;8.83;100.00;100783.69;5039758;28;20508;-76
2021/05/19 02:44:02;;;;;;;24.50;14.25;;;;;;;8.94;100.00;100786.69;5035549;28;20064;-77
2021/05/19 02:46:28;;;;;;;24.83;14.50;;;;;;;9.03;100.00;100793.50;5033821;28;20630;-77
2021/05/19 02:49:01;;;;;;;29.50;15.45;;;;;;;9.14;100.00;100780.34;5030967;28;20036;-77
2021/05/19 02:51:30;;;;;;;31.48;15.80;;;;;;;9.19;100.00;100788.19;5062465;28;20154;-76
2021/05/19 02:53:56;;;;;;;34.03;16.67;;;;;;;9.10;100.00;100788.31;5036129;28;20485;-77
2021/05/19 02:56:21;;;;;;;31.63;16.13;;;;;;;9.12;100.00;100787.22;5056305;28;20112;-77
2021/05/19 02:58:47;;;;;;;31.33;15.88;;;;;;;9.17;100.00;100784.25;5059865;28;20116;-77
2021/05/19 03:01:13;;;;;;;35.78;17.77;;;;;;;9.19;100.00;100790.09;5048810;28;20033;-76
2021/05/19 03:03:38;;;;;;;30.40;16.77;;;;;;;9.10;100.00;100790.22;5058212;28;20032;-77
2021/05/19 03:06:04;;;;;;;30.33;16.67;;;;;;;9.07;100.00;100794.38;5045094;28;20090;-77
2021/05/19 03:08:29;;;;;;;34.20;17.63;;;;;;;9.20;100.00;100789.72;5053270;28;20032;-75
2021/05/19 03:10:54;;;;;;;36.58;18.35;;;;;;;9.27;100.00;100797.97;5067753;28;20028;-77
2021/05/19 03:13:20;;;;;;;33.65;16.92;;;;;;;9.29;100.00;100790.34;5061745;28;20029;-76
2021/05/19 03:15:45;;;;;;;35.25;17.48;;;;;;;9.44;100.00;100792.34;5038897;28;20042;-74
2021/05/19 03:18:11;;;;;;;34.05;17.90;;;;;;;9.49;100.00;100789.38;5029710;28;20464;-76
2021/05/19 03:20:37;;;;;;;35.72;17.42;;;;;;;9.42;100.00;100799.16;5059150;28;20032;-77
2021/05/19 03:23:02;;;;;;;38.10;18.95;;;;;;;9.40;100.00;100801.41;5039678;28;20033;-77
2021/05/19 03:25:28;;;;;;;31.35;16.55;;;;;;;9.47;100.00;100799.69;5047282;28;20021;-75
2021/05/19 03:27:53;;;;;;;34.40;18.27;;;;;;;9.43;100.00;100804.19;5057893;28;20020;-76
2021/05/19 03:30:19;;;;;;;38.13;18.67;;;;;;;9.53;100.00;100805.59;5029853;28;20378;-77
2021/05/19 03:33:05;;;;;;;37.00;18.88;;;;;;;9.71;100.00;100806.88;5039042;28;20183;-77
2021/05/19 03:35:31;;;;;;;39.92;20.27;;;;;;;9.75;100.00;100805.06;4986031;28;20046;-77
2021/05/19 03:37:57;;;;;;;35.63;19.50;;;;;;;9.63;100.00;100805.09;4991734;28;20046;-77
2021/05/19 03:40:23;;;;;;;36.60;19.45;;;;;;;9.71;100.00;100804.97;4992510;28;20041;-77
2021/05/19 03:42:48;;;;;;;38.05;19.33;;;;;;;9.84;100.00;100811.81;4992220;28;20062;-77
2021/05/19 03:45:20;;;;;;;38.55;19.55;;;;;;;9.76;100.00;100815.44;4991845;28;20038;-77
2021/05/19 03:47:47;;;;;;;;;;;;;;;9.72;100.00;100813.78;4989051;28;20052;-77
2021/05/19 03:50:13;;;;;;;34.63;17.50;;;;;;;9.85;100.00;100807.25;5007536;28;19917;-76
2021/05/19 03:52:39;;;;;;;36.72;17.83;;;;;;;9.76;100.00;100811.97;4990158;28;20038;-76
2021/05/19 03:55:07;;;;;;;32.90;18.10;;;;;;;9.82;100.00;100818.66;5003152;28;20053;-77
2021/05/19 03:57:33;;;;;;;34.63;18.67;;;;;;;9.69;100.00;100819.88;4987167;28;20034;-77
2021/05/19 03:59:58;;;;;;;37.28;18.92;;;;;;;9.72;100.00;100811.09;4998189;28;20592;-77
2021/05/19 04:02:24;;;;;;;33.25;17.75;;;;;;;9.71;100.00;100820.31;4995134;28;20061;-77
2021/05/19 04:04:49;;;;;;;34.08;18.02;;;;;;;9.75;100.00;100821.19;5008446;28;20044;-77
2021/05/19 04:07:15;;;;;;;33.45;18.08;;;;;;;9.64;100.00;100820.13;4997165;28;20414;-77
2021/05/19 04:09:41;;;;;;;32.00;17.60;;;;;;;9.58;100.00;100832.25;4993435;28;20042;-77
2021/05/19 04:12:07;;;;;;;34.00;18.48;;;;;;;9.62;100.00;100828.50;5025555;28;20037;-78
2021/05/19 04:14:32;;;;;;;31.23;17.40;;;;;;;9.62;100.00;100827.75;5034868;28;20489;-77
2021/05/19 04:16:58;;;;;;;36.97;18.77;;;;;;;9.66;100.00;100832.09;5053818;28;20097;-76
2021/05/19 04:19:23;;;;;;;33.00;18.17;;;;;;;9.67;100.00;100820.22;5052526;28;20032;-77
2021/05/19 04:21:49;;;;;;;34.53;18.65;;;;;;;9.72;100.00;100836.09;5053837;28;20044;-77
2021/05/19 04:24:15;;;;;;;35.50;19.50;;;;;;;9.73;100.00;100837.66;5055722;28;20029;-76
2021/05/19 04:26:41;;;;;;;32.72;18.27;;;;;;;9.61;100.00;100836.94;5040228;28;20068;-77
2021/05/19 04:29:06;;;;;;;32.08;17.52;;;;;;;9.63;100.00;100838.16;5069941;28;20028;-77
2021/05/19 04:31:32;;;;;;;34.88;17.92;;;;;;;9.61;100.00;100839.63;5058966;28;20029;-77
2021/05/19 04:33:58;;;;;;;33.53;17.58;;;;;;;9.62;100.00;100844.66;5044598;28;20045;-77
2021/05/19 04:36:24;;;;;;;33.72;18.35;;;;;;;9.75;100.00;100845.38;5057261;28;20044;-77
2021/05/19 04:38:50;;;;;;;25.60;14.45;;;;;;;9.53;100.00;100843.22;5044579;28;20033;-77
2021/05/19 04:41:15;;;;;;;25.83;12.35;;;;;;;9.40;100.00;100850.59;5049949;28;20438;-77
2021/05/19 04:43:42;;;;;;;20.25;11.82;;;;;;;9.36;100.00;100854.28;5047283;28;20049;-77
2021/05/19 04:46:08;;;;;;;19.13;10.98;;;;;;;9.41;100.00;100852.13;5060831;28;20033;-77
2021/05/19 04:48:34;;;;;;;21.65;12.48;;;;;;;9.51;100.00;100856.25;5031905;28;20032;-76
2021/05/19 04:50:59;;;;;;;24.27;13.60;;;;;;;9.51;100.00;100857.03;5053447;28;20026;-75
2021/05/19 04:53:25;;;;;;;24.90;13.05;;;;;;;9.32;100.00;100858.78;5051716;28;20052;-77
2021/05/19 04:55:52;;;;;;;23.77;13.20;;;;;;;9.32;100.00;100864.16;5058133;28;20025;-77
2021/05/19 04:58:17;;;;;;;26.88;13.45;;;;;;;9.42;100.00;100861.78;5045662;28;20025;-76
2021/05/19 05:00:43;;;;;;;20.42;12.15;;;;;;;9.60;100.00;100867.66;5040405;28;20033;-77
2021/05/19 05:03:10;;;;;;;23.05;13.98;;;;;;;9.70;100.00;100869.81;5049134;28;20033;-77
2021/05/19 05:05:35;;;;;;;31.17;13.77;;;;;;;9.48;100.00;100868.47;5052749;28;20043;-76
2021/05/19 05:08:01;;;;;;;27.60;15.32;;;;;;;9.88;100.00;100873.78;5053949;28;20489;-77
2021/05/19 05:10:27;;;;;;;30.27;16.42;;;;;;;9.75;100.00;100869.59;5041015;28;20108;-75
2021/05/19 05:12:52;;;;;;;29.33;15.88;;;;;;;10.01;100.00;100878.75;5042713;28;20021;-77
2021/05/19 05:15:21;;;;;;;28.42;15.30;;;;;;;10.03;100.00;100875.72;5050714;28;20533;-76
2021/05/19 05:17:46;;;;;;;26.65;15.73;;;;;;;10.46;100.00;100881.06;5066789;28;20033;-75
2021/05/19 05:20:12;;;;;;;26.35;15.70;;;;;;;10.65;100.00;100885.75;5059770;28;20037;-77
2021/05/19 05:22:38;;;;;;;29.63;16.73;;;;;;;10.84;100.00;100880.41;5059009;28;20061;-75
2021/05/19 05:25:05;;;;;;;29.08;16.58;;;;;;;10.83;100.00;100884.25;5047311;28;20029;-77
2021/05/19 05:27:31;;;;;;;30.20;17.20;;;;;;;10.73;100.00;100885.56;5024411;28;20536;-76
2021/05/19 05:29:57;;;;;;;32.20;17.58;;;;;;;10.72;100.00;100889.38;5038688;28;20047;-76
2021/05/19 05:32:22;;;;;;;30.80;17.77;;;;;;;10.58;100.00;100889.06;5054011;28;20032;-75
2021/05/19 05:34:48;;;;;;;34.90;18.48;;;;;;;10.81;100.00;100889.19;5051451;28;20632;-76
2021/05/19 05:37:14;;;;;;;34.45;17.75;;;;;;;10.97;100.00;100895.34;5065414;28;20095;-76
2021/05/19 05:39:40;;;;;;;32.03;18.27;;;;;;;11.03;100.00;100901.25;5055752;28;20039;-77
2021/05/19 05:42:06;;;;;;;33.95;18.95;;;;;;;11.08;100.00;100896.38;5055895;28;20401;-77
2021/05/19 05:44:32;;;;;;;26.98;16.48;;;;;;;11.27;100.00;100888.31;5051842;28;20037;-76
2021/05/19 05:46:57;;;;;;;31.27;16.60;;;;;;;11.09;100.00;100889.06;5057709;28;20032;-77
2021/05/19 05:49:23;;;;;;;32.22;17.70;;;;;;;11.21;100.00;100889.72;5039929;28;20074;-74
2021/05/19 05:51:48;;;;;;;30.73;17.52;;;;;;;11.16;100.00;100894.59;5052455;28;20040;-77
2021/05/19 05:54:14;;;;;;;30.25;18.40;;;;;;;11.55;100.00;100893.50;5035124;28;20040;-77
2021/05/19 05:56:41;;;;;;;30.58;17.70;;;;;;;11.93;100.00;100895.41;5058507;28;20048;-76
2021/05/19 05:59:10;;;;;;;30.17;18.50;;;;;;;12.30;100.00;100902.66;5061968;28;20073;-77
2021/05/19 06:01:36;;;;;;;32.80;17.98;;;;;;;12.70;100.00;100900.25;5059291;28;20029;-75
2021/05/19 06:04:01;;;;;;;32.47;16.88;;;;;;;13.03;100.00;100904.19;5060445;28;20043;-75
2021/05/19 06:06:27;;;;;;;28.05;17.35;;;;;;;13.22;99.56;100899.47;5062089;28;20037;-77
2021/05/19 06:08:53;;;;;;;28.45;16.85;;;;;;;13.55;99.04;100902.22;5061281;28;20095;-77
2021/05/19 06:11:19;;;;;;;25.90;16.30;;;;;;;13.45;99.72;100899.41;5058460;28;20040;-77
2021/05/19 06:13:44;;;;;;;24.42;14.73;;;;;;;13.92;95.83;100899.56;5066936;28;20047;-75
2021/05/19 06:16:10;;;;;;;27.20;14.52;;;;;;;14.19;94.12;100906.41;5066426;28;20059;-77
2021/05/19 06:18:35;;;;;;;24.13;15.43;;;;;;;14.00;96.25;100903.91;5054480;28;20036;-75
2021/05/19 06:21:01;;;;;;;26.38;14.18;;;;;;;14.27;94.06;100899.94;5059056;28;20032;-77
2021/05/19 06:23:26;;;;;;;21.15;13.25;;;;;;;14.49;94.23;100906.31;5064679;28;20025;-76
2021/05/19 06:25:52;;;;;;;22.83;14.05;;;;;;;14.90;92.66;100899.69;5075333;28;20037;-77
2021/05/19 06:28:17;;;;;;;20.38;12.57;;;;;;;15.19;90.16;100895.19;5046286;28;20030;-75
2021/05/19 06:30:43;;;;;;;21.50;12.70;;;;;;;14.52;89.72;100907.53;5062910;28;20407;-77
2021/05/19 06:33:08;;;;;;;18.75;12.65;;;;;;;14.48;89.37;100904.75;5058453;28;20028;-76
2021/05/19 06:35:34;;;;;;;20.20;12.80;;;;;;;13.70;93.81;100916.72;5063765;28;20025;-77
2021/05/19 06:38:00;;;;;;;20.52;13.15;;;;;;;13.66;93.76;100917.81;5044620;28;20067;-77
2021/05/19 06:40:25;;;;;;;22.10;13.00;;;;;;;13.51;93.79;100923.03;5044915;28;20037;-77
2021/05/19 06:42:51;;;;;;;21.15;13.27;;;;;;;13.21;95.60;100919.56;5060485;28;20049;-76
2021/05/19 06:45:16;;;;;;;20.60;13.18;;;;;;;13.03;96.58;100915.81;5043615;28;20041;-77
2021/05/19 06:47:42;;;;;;;23.42;13.95;;;;;;;13.46;97.98;100914.47;5041108;28;20032;-73
2021/05/19 06:50:28;;;;;;;19.27;13.23;;;;;;;14.03;94.89;100922.09;5053577;28;20028;-76
2021/05/19 06:52:54;;;;;;;17.23;11.60;;;;;;;14.39;93.24;100924.06;4999119;28;20138;-75
2021/05/19 06:55:19;;;;;;;17.83;11.52;;;;;;;14.82;92.00;100919.75;4976987;28;20140;-76
2021/05/19 06:57:45;;;;;;;16.70;10.57;;;;;;;15.11;90.67;100905.25;4999843;28;20049;-77
2021/05/19 07:00:12;;;;;;;14.82;10.25;;;;;;;15.47;88.81;100913.56;5005726;28;20041;-76
2021/05/19 07:02:38;;;;;;;15.73;9.88;;;;;;;15.65;87.43;100917.16;5002011;28;20030;-77
2021/05/19 07:05:07;;;;;;;15.98;10.60;;;;;;;15.38;87.32;100914.69;5016366;28;20057;-77
2021/05/19 07:07:33;;;;;;;17.42;11.20;;;;;;;15.23;86.73;100920.41;5009037;28;20108;-77
2021/05/19 07:09:58;;;;;;;12.07;7.90;;;;;;;14.72;85.02;100919.66;5020397;28;20046;-73
2021/05/19 07:12:24;;;;;;;14.30;8.68;;;;;;;14.45;87.08;100913.66;5025792;28;20038;-77
2021/05/19 07:15:00;;;;;;;12.40;8.48;;;;;;;14.33;85.12;100914.72;5012308;28;20458;-77
2021/05/19 07:17:46;;;;;;;10.80;7.72;;;;;;;14.16;86.17;100918.00;5010475;28;20105;-76
2021/05/19 07:20:11;;;;;;;10.27;6.90;;;;;;;14.68;87.26;100913.44;4958144;28;20061;-76
2021/05/19 07:22:38;;;;;;;11.00;6.65;;;;;;;15.15;85.54;100916.88;4972372;28;20050;-77
2021/05/19 07:25:05;;;;;;;10.90;7.00;;;;;;;15.60;84.74;100912.09;4973100;28;20218;-76
2021/05/19 07:27:31;;;;;;;8.23;6.30;;;;;;;15.85;83.03;100919.16;4976727;28;20046;-76
2021/05/19 07:29:57;;;;;;;7.88;5.35;;;;;;;16.12;79.55;100920.38;4973648;28;20530;-75
2021/05/19 07:32:22;;;;;;;6.15;4.82;;;;;;;15.92;79.21;100921.13;4997944;28;20041;-75
2021/05/19 07:34:48;;;;;;;5.88;4.90;;;;;;;16.01;73.94;100907.94;5008787;28;20685;-75
2021/05/19 07:37:14;;;;;;;6.15;4.78;;;;;;;16.27;76.40;100921.19;5006214;28;20046;-75
2021/05/19 07:39:40;;;;;;;7.25;4.75;;;;;;;16.53;75.33;100918.13;5003677;28;20077;-75
2021/05/19 07:42:06;;;;;;;6.03;4.25;;;;;;;16.44;74.62;100917.72;5014063;28;20064;-76
2021/05/19 07:47:05;;;;;;;7.05;4.30;;;;;;;15.87;77.90;100924.97;5050060;28;20075;-73
2021/05/19 07:49:30;;;;;;;5.45;4.50;;;;;;;15.92;74.88;100930.06;5045501;28;20068;-72
2021/05/19 07:51:56;;;;;;;6.05;4.15;;;;;;;15.82;74.24;100924.56;5050665;28;20082;-73
2021/05/19 07:54:27;;;;;;;5.63;4.47;;;;;;;15.78;75.11;100930.00;5044859;28;20072;-72
2021/05/19 07:59:43;;;;;;;7.05;5.43;;;;;;;15.85;75.99;100932.72;5004817;28;19916;-72
2021/05/19 08:02:11;;;;;;;7.00;5.88;;;;;;;15.81;75.59;100928.47;5053082;28;20037;-73
2021/05/19 08:04:37;;;;;;;9.93;6.05;;;;;;;15.86;75.57;100934.31;5050415;28;20104;-72
2021/05/19 08:07:04;;;;;;;10.02;6.72;;;;;;;16.38;74.54;100926.63;5048211;28;20051;-73
2021/05/19 08:09:30;;;;;;;9.73;6.28;;;;;;;16.76;73.97;100929.41;5039148;28;20060;-73
2021/05/19 08:11:56;;;;;;;8.32;6.07;;;;;;;17.10;72.11;100919.66;5031760;28;20478;-73
2021/05/19 08:14:25;;;;;;;7.68;5.65;;;;;;;17.27;68.75;100934.38;5055161;28;20048;-73
2021/05/19 08:16:51;;;;;;;6.78;5.40;;;;;;;17.65;68.90;100933.50;5052934;28;20036;-73
2021/05/19 08:19:16;;;;;;;6.20;5.03;;;;;;;17.31;67.09;100926.19;5030606;28;20072;-73
2021/05/19 08:21:43;;;;;;;8.77;5.72;;;;;;;17.58;67.34;100932.75;5045193;28;20040;-73
2021/05/19 08:24:09;;;;;;;9.55;5.53;;;;;;;17.86;66.54;100936.16;5013659;28;20033;-73
2021/05/19 08:26:34;;;;;;;6.40;4.70;;;;;;;18.13;66.17;100930.16;5053312;28;20247;-73
2021/05/19 08:29:00;;;;;;;6.00;4.43;;;;;;;18.44;63.78;100929.22;5036361;28;20120;-73
2021/05/19 08:31:26;;;;;;;4.93;3.67;;;;;;;18.76;58.82;100929.72;5027457;28;20040;-73
2021/05/19 08:33:52;;;;;;;5.35;3.97;;;;;;;19.05;58.16;100931.00;5056698;28;20107;-73
2021/05/19 08:36:17;;;;;;;3.83;3.30;;;;;;;18.77;57.58;100929.34;5044045;28;20037;-73
2021/05/19 08:38:44;;;;;;;4.47;3.80;;;;;;;18.62;57.20;100936.06;5035377;28;20179;-73
2021/05/19 08:41:10;;;;;;;4.82;3.55;;;;;;;17.91;59.83;100929.50;5035930;28;20057;-73
2021/05/19 08:43:36;;;;;;;8.98;3.97;;;;;;;18.04;60.94;100928.66;5040731;28;20508;-72
2021/05/19 08:46:06;;;;;;;4.75;4.25;;;;;;;17.91;61.82;100933.00;5036771;28;20061;-72
2021/05/19 08:48:33;;;;;;;6.57;4.07;;;;;;;18.13;62.22;100930.16;5042102;28;20041;-73
2021/05/19 08:50:59;;;;;;;5.53;3.67;;;;;;;18.00;62.68;100930.63;5038634;28;20059;-72
2021/05/19 08:57:12;;;;;;;7.57;4.78;;;;;;;18.51;62.01;100923.69;5036510;28;20117;-74
2021/05/19 08:59:38;;;;;;;5.13;4.07;;;;;;;18.65;60.77;100929.81;5045519;28;20067;-74
2021/05/19 09:02:15;;;;;;;5.55;4.90;;;;;;;18.49;60.83;100934.22;5041901;28;20043;-74
2021/05/19 09:04:42;;;;;;;10.07;4.80;;;;;;;17.91;61.31;100934.94;5043673;28;20036;-73
2021/05/19 09:07:10;;;;;;;7.15;4.68;;;;;;;17.56;64.89;100927.72;5023712;28;20390;-72
2021/05/19 09:09:38;;;;;;;6.10;4.45;;;;;;;17.86;67.46;100933.44;5037666;28;20540;-74
2021/05/19 09:12:09;;;;;;;5.90;4.70;;;;;;;18.44;66.05;100931.94;5027217;28;20045;-74
2021/05/19 09:14:37;;;;;;;6.03;4.97;;;;;;;18.93;63.04;100928.78;5046415;28;20067;-73
2021/05/19 09:17:18;;;;;;;6.45;4.32;;;;;;;19.02;60.65;100926.38;5047532;28;20103;-74
2021/05/19 09:19:43;;;;;;;5.83;4.47;;;;;;;19.26;58.79;100930.78;5059858;28;20667;-74
2021/05/19 09:22:23;;;;;;;10.95;4.57;;;;;;;19.25;57.15;100928.47;5050179;28;20021;-74
2021/05/19 09:24:50;;;;;;;4.85;3.67;;;;;;;19.16;58.64;100926.25;5017411;28;20401;-74
2021/05/19 09:27:16;;;;;;;7.00;3.45;;;;;;;19.02;58.44;100926.38;5040360;28;20069;-73
2021/05/19 09:29:50;;;;;;;5.07;3.65;;;;;;;19.11;57.16;100926.66;5028993;28;20063;-75
2021/05/19 09:32:18;;;;;;;5.22;3.80;;;;;;;19.29;57.18;100929.22;5038789;28;20028;-74
2021/05/19 09:34:45;;;;;;;5.85;3.90;;;;;;;19.37;57.50;100923.31;5049941;28;20029;-74
2021/05/19 09:37:11;;;;;;;4.60;3.60;;;;;;;19.73;57.36;100918.16;5035967;28;20025;-74
2021/05/19 09:39:58;;;;;;;4.18;3.22;;;;;;;20.11;55.83;100921.56;5043149;28;20039;-74
2021/05/19 09:42:40;;;;;;;4.85;3.45;;;;;;;20.52;53.73;100927.59;5013790;28;20094;-74
2021/05/19 09:45:31;;;;;;;4.35;3.40;;;;;;;20.66;51.57;100928.16;5040627;28;20124;-74
2021/05/19 09:47:59;;;;;;;4.25;3.28;;;;;;;20.36;51.72;100920.03;5043393;28;20033;-75
2021/05/19 09:50:40;;;;;;;5.75;3.30;;;;;;;20.67;52.97;100924.22;5043195;28;20024;-74
2021/05/19 09:53:08;;;;;;;4.97;3.25;;;;;;;20.49;53.03;100931.19;5039585;28;20430;-75
2021/05/19 09:55:36;;;;;;;5.30;3.17;;;;;;;20.95;51.25;100928.44;5026014;28;20044;-75
2021/05/19 09:58:02;;;;;;;4.57;2.92;;;;;;;21.26;51.51;100929.84;5036402;28;20052;-74
2021/05/19 10:00:29;;;;;;;4.97;3.13;;;;;;;20.98;50.32;100935.81;5037797;28;20044;-74
2021/05/19 10:02:55;;;;;;;5.22;3.83;;;;;;;20.77;51.80;100927.97;5048370;28;20060;-75
2021/05/19 10:05:29;;;;;;;3.92;3.40;;;;;;;20.28;51.18;100928.78;5057395;28;20028;-73
2021/05/19 10:07:55;;;;;;;7.72;3.42;;;;;;;20.23;54.02;100931.94;5048897;28;20090;-74
2021/05/19 10:10:25;;;;;;;6.65;3.35;;;;;;;20.26;52.17;100931.16;5051749;28;20028;-75
2021/05/19 10:12:51;;;;;;;5.25;3.92;;;;;;;20.62;51.93;100916.50;5038475;28;20024;-74
2021/05/19 10:15:21;;;;;;;6.82;3.53;;;;;;;21.08;51.31;100921.19;5048622;28;20075;-75
2021/05/19 10:17:51;;;;;;;5.38;3.40;;;;;;;21.19;51.47;100926.47;5051739;28;20047;-74
2021/05/19 10:20:24;;;;;;;4.70;3.10;;;;;;;21.36;50.92;100931.63;5010541;28;20040;-75
2021/05/19 10:22:50;;;;;;;3.20;2.90;;;;;;;21.68;49.05;100924.72;5046393;28;20087;-75
2021/05/19 10:25:42;;;;;;;3.88;2.88;;;;;;;22.07;47.59;100914.47;5040589;28;20063;-75
2021/05/19 10:28:17;;;;;;;4.82;2.65;;;;;;;22.15;48.77;100915.09;5035388;28;20092;-74
2021/05/19 10:30:51;;;;;;;5.30;3.40;;;;;;;22.40;47.71;100920.75;5048766;28;20123;-74
2021/05/19 10:33:29;;;;;;;5.10;2.95;;;;;;;22.52;47.50;100911.84;5049421;28;20029;-73
2021/05/19 10:36:20;;;;;;;3.92;3.08;;;;;;;21.75;48.24;100913.59;5053908;28;20138;-74
2021/05/19 10:38:46;;;;;;;3.63;3.22;;;;;;;22.25;48.48;100916.81;5049065;28;20083;-73
2021/05/19 10:41:11;;;;;;;4.50;3.25;;;;;;;22.39;47.98;100911.78;5051131;28;20028;-73
2021/05/19 10:43:46;;;;;;;4.30;3.00;;;;;;;22.27;48.23;100906.97;5058996;28;20496;-74
2021/05/19 10:46:13;;;;;;;4.28;3.30;;;;;;;21.99;48.83;100912.34;5044780;28;20029;-73
2021/05/19 10:48:39;;;;;;;3.33;2.72;;;;;;;22.35;45.84;100896.59;5059826;28;20151;-73
2021/05/19 10:51:43;;;;;;;3.58;2.63;;;;;;;22.38;46.57;100901.97;5054867;28;20037;-73
2021/05/19 11:00:10;;;;;;;4.30;2.67;;;;;;;22.81;44.62;100885.25;5041657;28;20041;-73
2021/05/19 11:02:58;;;;;;;3.28;2.50;;;;;;;22.76;44.96;100887.75;5044481;28;20445;-73
2021/05/19 11:05:30;;;;;;;4.35;2.88;;;;;;;22.85;45.35;100883.16;5030337;28;20078;-73
2021/05/19 11:08:05;;;;;;;4.88;2.90;;;;;;;22.69;46.79;100887.91;5018538;28;20029;-73
2021/05/19 11:10:31;;;;;;;4.20;3.10;;;;;;;22.95;46.37;100884.09;5021214;28;20053;-73
2021/05/19 11:12:57;;;;;;;5.43;3.30;;;;;;;22.89;46.55;100881.09;5044148;28;20083;-73
2021/05/19 11:15:58;;;;;;;3.10;2.35;;;;;;;22.89;46.08;100872.88;5050288;28;20487;-74
2021/05/19 11:21:04;;;;;;;3.42;2.70;;;;;;;23.34;43.94;100872.06;5025873;28;20072;-73
2021/05/19 11:23:30;;;;;;;4.05;2.45;;;;;;;23.72;45.22;100875.63;5050232;28;20041;-73
2021/05/19 11:26:13;;;;;;;3.20;2.05;;;;;;;24.03;42.48;100874.69;5050660;28;20036;-73
2021/05/19 11:28:40;;;;;;;3.80;2.13;;;;;;;23.53;42.82;100869.13;5027006;28;20048;-74
2021/05/19 11:31:13;;;;;;;4.75;2.10;;;;;;;22.85;44.00;100868.66;5050596;28;20037;-73
2021/05/19 11:34:00;;;;;;;4.72;2.70;;;;;;;22.85;44.21;100866.69;5050994;28;20029;-73
2021/05/19 11:36:29;;;;;;;3.78;2.40;;;;;;;22.61;44.75;100859.09;5036376;28;20052;-73
2021/05/19 11:38:56;;;;;;;2.85;2.00;;;;;;;22.47;44.83;100853.94;5030678;28;20081;-75